sensor_id;sensor_type;location;lat;lon;timestamp;P1;durP1;ratioP1;P2;durP2;ratioP2
7683;SDS011;3884;48.616;12.872;2023-07-24T00:01:31;11.97;;;8.33;;
7683;SDS011;3884;48.616;12.872;2023-07-24T00:03:58;10.83;;;8.33;;
7683;SDS011;3884;48.616;12.872;2023-07-24T00:06:25;11.87;;;8.17;;
7683;SDS011;3884;48.616;12.872;2023-07-24T00:08:52;11.63;;;8.80;;
7683;SDS011;3884;48.616;12.872;2023-07-24T00:11:21;11.47;;;8.63;;
7683;SDS011;3884;48.616;12.872;2023-07-24T00:13:50;10.43;;;8.00;;
7683;SDS011;3884;48.616;12.872;2023-07-24T00:16:17;11.07;;;8.03;;
7683;SDS011;3884;48.616;12.872;2023-07-24T00:18:44;11.37;;;8.70;;
7683;SDS011;3884;48.616;12.872;2023-07-24T00:21:11;12.90;;;8.37;;
7683;SDS011;3884;48.616;12.872;2023-07-24T00:23:39;11.90;;;8.27;;
7683;SDS011;3884;48.616;12.872;2023-07-24T00:26:06;10.67;;;7.80;;
7683;SDS011;3884;48.616;12.872;2023-07-24T00:28:35;10.97;;;8.13;;
7683;SDS011;3884;48.616;12.872;2023-07-24T00:31:02;12.07;;;8.27;;
7683;SDS011;3884;48.616;12.872;2023-07-24T00:33:34;12.50;;;8.37;;
7683;SDS011;3884;48.616;12.872;2023-07-24T00:36:03;14.13;;;9.03;;
7683;SDS011;3884;48.616;12.872;2023-07-24T00:38:31;11.30;;;9.27;;
7683;SDS011;3884;48.616;12.872;2023-07-24T00:40:57;11.73;;;8.30;;
7683;SDS011;3884;48.616;12.872;2023-07-24T00:43:25;14.30;;;9.03;;
7683;SDS011;3884;48.616;12.872;2023-07-24T00:45:56;12.17;;;8.80;;
7683;SDS011;3884;48.616;12.872;2023-07-24T00:48:24;12.80;;;9.60;;
7683;SDS011;3884;48.616;12.872;2023-07-24T00:50:51;11.97;;;8.77;;
7683;SDS011;3884;48.616;12.872;2023-07-24T00:53:18;15.27;;;8.23;;
7683;SDS011;3884;48.616;12.872;2023-07-24T00:55:45;12.60;;;8.20;;
7683;SDS011;3884;48.616;12.872;2023-07-24T00:58:13;11.50;;;8.93;;
7683;SDS011;3884;48.616;12.872;2023-07-24T01:00:43;14.40;;;9.33;;
7683;SDS011;3884;48.616;12.872;2023-07-24T01:03:11;11.37;;;8.60;;
7683;SDS011;3884;48.616;12.872;2023-07-24T01:05:38;10.60;;;8.83;;
7683;SDS011;3884;48.616;12.872;2023-07-24T01:08:06;11.17;;;8.63;;
7683;SDS011;3884;48.616;12.872;2023-07-24T01:10:35;12.03;;;8.53;;
7683;SDS011;3884;48.616;12.872;2023-07-24T01:13:05;14.93;;;8.93;;
7683;SDS011;3884;48.616;12.872;2023-07-24T01:15:35;12.23;;;8.63;;
7683;SDS011;3884;48.616;12.872;2023-07-24T01:18:08;14.13;;;9.27;;
7683;SDS011;3884;48.616;12.872;2023-07-24T01:20:40;13.50;;;8.87;;
7683;SDS011;3884;48.616;12.872;2023-07-24T01:23:14;15.47;;;8.67;;
7683;SDS011;3884;48.616;12.872;2023-07-24T01:26:00;15.40;;;9.60;;
7683;SDS011;3884;48.616;12.872;2023-07-24T01:28:28;13.07;;;9.83;;
7683;SDS011;3884;48.616;12.872;2023-07-24T01:30:55;16.90;;;9.60;;
7683;SDS011;3884;48.616;12.872;2023-07-24T01:33:23;10.73;;;8.70;;
7683;SDS011;3884;48.616;12.872;2023-07-24T01:35:53;14.70;;;8.83;;
7683;SDS011;3884;48.616;12.872;2023-07-24T01:38:21;13.37;;;9.17;;
7683;SDS011;3884;48.616;12.872;2023-07-24T01:40:50;13.27;;;9.50;;
7683;SDS011;3884;48.616;12.872;2023-07-24T01:43:20;14.47;;;9.27;;
7683;SDS011;3884;48.616;12.872;2023-07-24T01:45:48;13.40;;;9.47;;
7683;SDS011;3884;48.616;12.872;2023-07-24T01:48:17;14.93;;;9.30;;
7683;SDS011;3884;48.616;12.872;2023-07-24T01:50:44;14.50;;;9.80;;
7683;SDS011;3884;48.616;12.872;2023-07-24T01:53:11;13.60;;;9.53;;
7683;SDS011;3884;48.616;12.872;2023-07-24T01:55:38;12.10;;;9.30;;
7683;SDS011;3884;48.616;12.872;2023-07-24T01:58:05;12.17;;;9.07;;
7683;SDS011;3884;48.616;12.872;2023-07-24T02:00:34;12.50;;;9.30;;
7683;SDS011;3884;48.616;12.872;2023-07-24T02:03:00;11.47;;;8.73;;
7683;SDS011;3884;48.616;12.872;2023-07-24T02:05:27;15.10;;;8.80;;
7683;SDS011;3884;48.616;12.872;2023-07-24T02:07:55;14.73;;;8.97;;
7683;SDS011;3884;48.616;12.872;2023-07-24T02:10:21;15.63;;;9.90;;
7683;SDS011;3884;48.616;12.872;2023-07-24T02:12:48;15.67;;;9.40;;
7683;SDS011;3884;48.616;12.872;2023-07-24T02:15:15;13.67;;;8.83;;
7683;SDS011;3884;48.616;12.872;2023-07-24T02:17:43;12.23;;;8.70;;
7683;SDS011;3884;48.616;12.872;2023-07-24T02:20:11;11.00;;;8.30;;
7683;SDS011;3884;48.616;12.872;2023-07-24T02:22:37;12.90;;;9.50;;
7683;SDS011;3884;48.616;12.872;2023-07-24T02:25:05;15.77;;;9.37;;
7683;SDS011;3884;48.616;12.872;2023-07-24T02:27:33;13.03;;;8.80;;
7683;SDS011;3884;48.616;12.872;2023-07-24T02:30:00;11.97;;;8.87;;
7683;SDS011;3884;48.616;12.872;2023-07-24T02:32:28;15.43;;;9.80;;
7683;SDS011;3884;48.616;12.872;2023-07-24T02:34:56;16.03;;;9.43;;
7683;SDS011;3884;48.616;12.872;2023-07-24T02:37:23;12.50;;;8.07;;
7683;SDS011;3884;48.616;12.872;2023-07-24T02:39:51;13.87;;;8.83;;
7683;SDS011;3884;48.616;12.872;2023-07-24T02:42:19;12.57;;;8.80;;
7683;SDS011;3884;48.616;12.872;2023-07-24T02:44:46;12.80;;;9.03;;
7683;SDS011;3884;48.616;12.872;2023-07-24T02:47:13;15.03;;;9.53;;
7683;SDS011;3884;48.616;12.872;2023-07-24T02:49:40;13.33;;;8.90;;
7683;SDS011;3884;48.616;12.872;2023-07-24T02:52:08;10.80;;;8.20;;
7683;SDS011;3884;48.616;12.872;2023-07-24T02:54:35;11.30;;;8.63;;
7683;SDS011;3884;48.616;12.872;2023-07-24T02:57:02;11.53;;;8.93;;
7683;SDS011;3884;48.616;12.872;2023-07-24T02:59:30;15.60;;;8.87;;
7683;SDS011;3884;48.616;12.872;2023-07-24T03:01:57;12.73;;;9.73;;
7683;SDS011;3884;48.616;12.872;2023-07-24T03:04:25;13.10;;;9.37;;
7683;SDS011;3884;48.616;12.872;2023-07-24T03:06:52;12.73;;;8.70;;
7683;SDS011;3884;48.616;12.872;2023-07-24T03:09:21;12.07;;;9.00;;
7683;SDS011;3884;48.616;12.872;2023-07-24T03:11:48;15.60;;;9.10;;
7683;SDS011;3884;48.616;12.872;2023-07-24T03:14:15;11.57;;;9.70;;
7683;SDS011;3884;48.616;12.872;2023-07-24T03:16:42;12.90;;;9.30;;
7683;SDS011;3884;48.616;12.872;2023-07-24T03:19:09;14.43;;;9.23;;
7683;SDS011;3884;48.616;12.872;2023-07-24T03:21:35;11.40;;;9.30;;
7683;SDS011;3884;48.616;12.872;2023-07-24T03:24:02;13.47;;;8.93;;
7683;SDS011;3884;48.616;12.872;2023-07-24T03:26:31;12.30;;;9.40;;
7683;SDS011;3884;48.616;12.872;2023-07-24T03:28:58;15.23;;;10.17;;
7683;SDS011;3884;48.616;12.872;2023-07-24T03:31:26;15.53;;;10.00;;
7683;SDS011;3884;48.616;12.872;2023-07-24T03:33:53;15.30;;;9.67;;
7683;SDS011;3884;48.616;12.872;2023-07-24T03:36:20;13.93;;;9.73;;
7683;SDS011;3884;48.616;12.872;2023-07-24T03:38:47;13.60;;;8.87;;
7683;SDS011;3884;48.616;12.872;2023-07-24T03:41:14;15.20;;;9.37;;
7683;SDS011;3884;48.616;12.872;2023-07-24T03:43:42;13.17;;;9.47;;
7683;SDS011;3884;48.616;12.872;2023-07-24T03:46:10;10.73;;;9.17;;
7683;SDS011;3884;48.616;12.872;2023-07-24T03:48:37;14.97;;;10.43;;
7683;SDS011;3884;48.616;12.872;2023-07-24T03:51:04;11.77;;;9.77;;
7683;SDS011;3884;48.616;12.872;2023-07-24T03:53:32;12.97;;;9.40;;
7683;SDS011;3884;48.616;12.872;2023-07-24T03:55:59;15.87;;;9.70;;
7683;SDS011;3884;48.616;12.872;2023-07-24T03:58:26;13.53;;;10.10;;
7683;SDS011;3884;48.616;12.872;2023-07-24T04:00:55;12.90;;;9.53;;
7683;SDS011;3884;48.616;12.872;2023-07-24T04:03:22;17.70;;;10.00;;
7683;SDS011;3884;48.616;12.872;2023-07-24T04:05:49;13.43;;;9.73;;
7683;SDS011;3884;48.616;12.872;2023-07-24T04:08:16;13.27;;;9.63;;
7683;SDS011;3884;48.616;12.872;2023-07-24T04:10:44;11.97;;;8.90;;
7683;SDS011;3884;48.616;12.872;2023-07-24T04:13:10;13.40;;;9.23;;
7683;SDS011;3884;48.616;12.872;2023-07-24T04:15:37;14.70;;;10.03;;
7683;SDS011;3884;48.616;12.872;2023-07-24T04:18:06;13.00;;;9.73;;
7683;SDS011;3884;48.616;12.872;2023-07-24T04:20:32;17.70;;;9.30;;
7683;SDS011;3884;48.616;12.872;2023-07-24T04:22:59;15.20;;;9.53;;
7683;SDS011;3884;48.616;12.872;2023-07-24T04:25:27;14.17;;;9.93;;
7683;SDS011;3884;48.616;12.872;2023-07-24T04:27:54;12.37;;;8.83;;
7683;SDS011;3884;48.616;12.872;2023-07-24T04:30:22;14.77;;;9.47;;
7683;SDS011;3884;48.616;12.872;2023-07-24T04:32:49;13.40;;;10.03;;
7683;SDS011;3884;48.616;12.872;2023-07-24T04:35:17;13.60;;;8.57;;
7683;SDS011;3884;48.616;12.872;2023-07-24T04:37:44;13.20;;;9.17;;
7683;SDS011;3884;48.616;12.872;2023-07-24T04:40:11;11.27;;;8.50;;
7683;SDS011;3884;48.616;12.872;2023-07-24T04:42:38;11.20;;;9.13;;
7683;SDS011;3884;48.616;12.872;2023-07-24T04:45:05;11.83;;;8.70;;
7683;SDS011;3884;48.616;12.872;2023-07-24T04:47:33;12.17;;;9.53;;
7683;SDS011;3884;48.616;12.872;2023-07-24T04:50:02;9.87;;;8.30;;
7683;SDS011;3884;48.616;12.872;2023-07-24T04:52:30;11.17;;;8.73;;
7683;SDS011;3884;48.616;12.872;2023-07-24T04:54:57;11.43;;;8.93;;
7683;SDS011;3884;48.616;12.872;2023-07-24T04:57:24;11.60;;;9.27;;
7683;SDS011;3884;48.616;12.872;2023-07-24T04:59:50;11.57;;;8.80;;
7683;SDS011;3884;48.616;12.872;2023-07-24T05:02:17;11.83;;;8.90;;
7683;SDS011;3884;48.616;12.872;2023-07-24T05:04:44;12.40;;;9.00;;
7683;SDS011;3884;48.616;12.872;2023-07-24T05:07:11;12.50;;;9.17;;
7683;SDS011;3884;48.616;12.872;2023-07-24T05:09:39;13.00;;;9.20;;
7683;SDS011;3884;48.616;12.872;2023-07-24T05:12:06;12.77;;;8.77;;
7683;SDS011;3884;48.616;12.872;2023-07-24T05:14:33;12.43;;;9.07;;
7683;SDS011;3884;48.616;12.872;2023-07-24T05:17:00;11.03;;;8.87;;
7683;SDS011;3884;48.616;12.872;2023-07-24T05:19:27;12.73;;;9.50;;
7683;SDS011;3884;48.616;12.872;2023-07-24T05:21:54;12.30;;;9.43;;
7683;SDS011;3884;48.616;12.872;2023-07-24T05:24:21;13.50;;;9.53;;
7683;SDS011;3884;48.616;12.872;2023-07-24T05:26:49;11.80;;;9.17;;
7683;SDS011;3884;48.616;12.872;2023-07-24T05:29:17;13.43;;;9.30;;
7683;SDS011;3884;48.616;12.872;2023-07-24T05:31:44;11.87;;;9.70;;
7683;SDS011;3884;48.616;12.872;2023-07-24T05:34:13;13.17;;;9.60;;
7683;SDS011;3884;48.616;12.872;2023-07-24T05:36:40;11.73;;;9.23;;
7683;SDS011;3884;48.616;12.872;2023-07-24T05:39:07;12.13;;;9.20;;
7683;SDS011;3884;48.616;12.872;2023-07-24T05:41:34;11.77;;;9.30;;
7683;SDS011;3884;48.616;12.872;2023-07-24T05:44:02;11.70;;;8.87;;
7683;SDS011;3884;48.616;12.872;2023-07-24T05:46:30;12.40;;;9.23;;
7683;SDS011;3884;48.616;12.872;2023-07-24T05:48:57;12.03;;;9.30;;
7683;SDS011;3884;48.616;12.872;2023-07-24T05:51:25;13.60;;;9.20;;
7683;SDS011;3884;48.616;12.872;2023-07-24T05:53:52;11.63;;;8.77;;
7683;SDS011;3884;48.616;12.872;2023-07-24T05:56:19;11.83;;;9.10;;
7683;SDS011;3884;48.616;12.872;2023-07-24T05:58:46;11.10;;;9.13;;
7683;SDS011;3884;48.616;12.872;2023-07-24T06:01:14;11.67;;;9.37;;
7683;SDS011;3884;48.616;12.872;2023-07-24T06:03:41;11.37;;;9.53;;
7683;SDS011;3884;48.616;12.872;2023-07-24T06:06:08;11.83;;;9.90;;
7683;SDS011;3884;48.616;12.872;2023-07-24T06:08:35;12.80;;;9.27;;
7683;SDS011;3884;48.616;12.872;2023-07-24T06:11:02;10.97;;;8.97;;
7683;SDS011;3884;48.616;12.872;2023-07-24T06:13:28;11.97;;;9.30;;
7683;SDS011;3884;48.616;12.872;2023-07-24T06:15:55;13.57;;;9.80;;
7683;SDS011;3884;48.616;12.872;2023-07-24T06:18:24;12.90;;;9.03;;
7683;SDS011;3884;48.616;12.872;2023-07-24T06:20:52;12.30;;;9.33;;
7683;SDS011;3884;48.616;12.872;2023-07-24T06:23:19;11.53;;;9.47;;
7683;SDS011;3884;48.616;12.872;2023-07-24T06:25:46;13.87;;;8.97;;
7683;SDS011;3884;48.616;12.872;2023-07-24T06:28:13;12.20;;;9.10;;
7683;SDS011;3884;48.616;12.872;2023-07-24T06:30:40;13.97;;;9.53;;
7683;SDS011;3884;48.616;12.872;2023-07-24T06:33:07;11.47;;;9.00;;
7683;SDS011;3884;48.616;12.872;2023-07-24T06:35:35;16.30;;;9.80;;
7683;SDS011;3884;48.616;12.872;2023-07-24T06:38:02;13.23;;;9.70;;
7683;SDS011;3884;48.616;12.872;2023-07-24T06:40:29;11.37;;;9.10;;
7683;SDS011;3884;48.616;12.872;2023-07-24T06:42:56;12.97;;;9.50;;
7683;SDS011;3884;48.616;12.872;2023-07-24T06:45:22;12.23;;;9.73;;
7683;SDS011;3884;48.616;12.872;2023-07-24T06:47:49;11.10;;;9.23;;
7683;SDS011;3884;48.616;12.872;2023-07-24T06:50:16;12.87;;;9.13;;
7683;SDS011;3884;48.616;12.872;2023-07-24T06:52:44;12.13;;;9.37;;
7683;SDS011;3884;48.616;12.872;2023-07-24T06:55:11;12.13;;;9.20;;
7683;SDS011;3884;48.616;12.872;2023-07-24T06:57:38;12.67;;;9.40;;
7683;SDS011;3884;48.616;12.872;2023-07-24T07:00:06;13.43;;;11.13;;
7683;SDS011;3884;48.616;12.872;2023-07-24T07:02:37;11.27;;;8.90;;
7683;SDS011;3884;48.616;12.872;2023-07-24T07:05:04;13.10;;;9.13;;
7683;SDS011;3884;48.616;12.872;2023-07-24T07:07:32;12.53;;;9.30;;
7683;SDS011;3884;48.616;12.872;2023-07-24T07:10:00;11.00;;;8.80;;
7683;SDS011;3884;48.616;12.872;2023-07-24T07:12:27;11.60;;;9.80;;
7683;SDS011;3884;48.616;12.872;2023-07-24T07:14:54;12.40;;;9.30;;
7683;SDS011;3884;48.616;12.872;2023-07-24T07:17:21;11.77;;;9.37;;
7683;SDS011;3884;48.616;12.872;2023-07-24T07:19:48;11.63;;;9.30;;
7683;SDS011;3884;48.616;12.872;2023-07-24T07:22:15;10.87;;;8.57;;
7683;SDS011;3884;48.616;12.872;2023-07-24T07:24:41;10.83;;;9.30;;
7683;SDS011;3884;48.616;12.872;2023-07-24T07:27:10;11.93;;;8.77;;
7683;SDS011;3884;48.616;12.872;2023-07-24T07:29:37;10.80;;;8.53;;
7683;SDS011;3884;48.616;12.872;2023-07-24T07:32:04;11.70;;;8.97;;
7683;SDS011;3884;48.616;12.872;2023-07-24T07:34:32;11.03;;;9.10;;
7683;SDS011;3884;48.616;12.872;2023-07-24T07:36:59;9.80;;;8.33;;
7683;SDS011;3884;48.616;12.872;2023-07-24T07:39:26;10.80;;;8.60;;
7683;SDS011;3884;48.616;12.872;2023-07-24T07:41:53;11.87;;;9.07;;
7683;SDS011;3884;48.616;12.872;2023-07-24T07:44:21;12.63;;;8.67;;
7683;SDS011;3884;48.616;12.872;2023-07-24T07:46:48;11.27;;;9.13;;
7683;SDS011;3884;48.616;12.872;2023-07-24T07:49:15;8.77;;;7.53;;
7683;SDS011;3884;48.616;12.872;2023-07-24T07:51:42;10.50;;;7.97;;
7683;SDS011;3884;48.616;12.872;2023-07-24T07:54:09;10.00;;;8.33;;
7683;SDS011;3884;48.616;12.872;2023-07-24T07:56:35;10.57;;;8.33;;
7683;SDS011;3884;48.616;12.872;2023-07-24T07:59:02;9.80;;;8.57;;
7683;SDS011;3884;48.616;12.872;2023-07-24T08:01:31;10.10;;;8.17;;
7683;SDS011;3884;48.616;12.872;2023-07-24T08:04:00;10.50;;;8.50;;
7683;SDS011;3884;48.616;12.872;2023-07-24T08:06:27;9.60;;;8.03;;
7683;SDS011;3884;48.616;12.872;2023-07-24T08:08:54;9.63;;;8.03;;
7683;SDS011;3884;48.616;12.872;2023-07-24T08:11:20;10.10;;;7.90;;
7683;SDS011;3884;48.616;12.872;2023-07-24T08:13:48;11.00;;;8.50;;
7683;SDS011;3884;48.616;12.872;2023-07-24T08:16:14;10.87;;;8.30;;
7683;SDS011;3884;48.616;12.872;2023-07-24T08:18:45;10.43;;;8.27;;
7683;SDS011;3884;48.616;12.872;2023-07-24T08:21:13;8.97;;;7.80;;
7683;SDS011;3884;48.616;12.872;2023-07-24T08:23:40;10.23;;;8.07;;
7683;SDS011;3884;48.616;12.872;2023-07-24T08:26:07;10.77;;;8.27;;
7683;SDS011;3884;48.616;12.872;2023-07-24T08:28:34;9.93;;;8.03;;
7683;SDS011;3884;48.616;12.872;2023-07-24T08:31:00;11.70;;;7.83;;
7683;SDS011;3884;48.616;12.872;2023-07-24T08:33:27;9.23;;;8.13;;
7683;SDS011;3884;48.616;12.872;2023-07-24T08:36:00;9.90;;;8.50;;
7683;SDS011;3884;48.616;12.872;2023-07-24T08:38:27;13.00;;;8.43;;
7683;SDS011;3884;48.616;12.872;2023-07-24T08:41:01;11.47;;;9.13;;
7683;SDS011;3884;48.616;12.872;2023-07-24T08:43:28;10.30;;;8.40;;
7683;SDS011;3884;48.616;12.872;2023-07-24T08:45:57;13.40;;;9.30;;
7683;SDS011;3884;48.616;12.872;2023-07-24T08:48:25;11.43;;;9.10;;
7683;SDS011;3884;48.616;12.872;2023-07-24T08:50:55;11.03;;;9.17;;
7683;SDS011;3884;48.616;12.872;2023-07-24T08:53:24;11.73;;;9.30;;
7683;SDS011;3884;48.616;12.872;2023-07-24T08:55:52;13.17;;;9.47;;
7683;SDS011;3884;48.616;12.872;2023-07-24T08:58:20;10.60;;;8.93;;
7683;SDS011;3884;48.616;12.872;2023-07-24T09:00:47;10.93;;;9.20;;
7683;SDS011;3884;48.616;12.872;2023-07-24T09:03:16;11.47;;;8.00;;
7683;SDS011;3884;48.616;12.872;2023-07-24T09:05:43;11.07;;;8.77;;
7683;SDS011;3884;48.616;12.872;2023-07-24T09:08:10;11.83;;;8.70;;
7683;SDS011;3884;48.616;12.872;2023-07-24T09:10:39;10.60;;;7.97;;
7683;SDS011;3884;48.616;12.872;2023-07-24T09:13:06;11.20;;;9.13;;
7683;SDS011;3884;48.616;12.872;2023-07-24T09:15:39;13.63;;;9.13;;
7683;SDS011;3884;48.616;12.872;2023-07-24T09:18:06;11.37;;;8.50;;
7683;SDS011;3884;48.616;12.872;2023-07-24T09:20:37;10.27;;;9.17;;
7683;SDS011;3884;48.616;12.872;2023-07-24T09:23:06;10.80;;;8.67;;
7683;SDS011;3884;48.616;12.872;2023-07-24T09:25:33;10.77;;;8.70;;
7683;SDS011;3884;48.616;12.872;2023-07-24T09:28:09;12.40;;;9.13;;
7683;SDS011;3884;48.616;12.872;2023-07-24T09:30:37;15.80;;;9.50;;
7683;SDS011;3884;48.616;12.872;2023-07-24T09:33:04;12.20;;;8.83;;
7683;SDS011;3884;48.616;12.872;2023-07-24T09:35:31;12.10;;;8.40;;
7683;SDS011;3884;48.616;12.872;2023-07-24T09:38:02;11.20;;;9.07;;
7683;SDS011;3884;48.616;12.872;2023-07-24T09:40:37;11.50;;;8.23;;
7683;SDS011;3884;48.616;12.872;2023-07-24T09:43:19;11.10;;;8.90;;
7683;SDS011;3884;48.616;12.872;2023-07-24T09:45:47;11.60;;;8.70;;
7683;SDS011;3884;48.616;12.872;2023-07-24T09:48:16;12.73;;;8.87;;
7683;SDS011;3884;48.616;12.872;2023-07-24T09:50:44;10.53;;;8.10;;
7683;SDS011;3884;48.616;12.872;2023-07-24T09:53:13;11.90;;;8.10;;
7683;SDS011;3884;48.616;12.872;2023-07-24T09:55:47;10.37;;;8.70;;
7683;SDS011;3884;48.616;12.872;2023-07-24T09:58:19;10.77;;;8.57;;
7683;SDS011;3884;48.616;12.872;2023-07-24T10:00:48;12.40;;;8.47;;
7683;SDS011;3884;48.616;12.872;2023-07-24T10:03:16;10.17;;;8.00;;
7683;SDS011;3884;48.616;12.872;2023-07-24T10:05:45;9.30;;;7.83;;
7683;SDS011;3884;48.616;12.872;2023-07-24T10:08:12;9.53;;;7.97;;
7683;SDS011;3884;48.616;12.872;2023-07-24T10:10:41;10.93;;;8.23;;
7683;SDS011;3884;48.616;12.872;2023-07-24T10:13:08;9.40;;;7.73;;
7683;SDS011;3884;48.616;12.872;2023-07-24T10:15:39;10.57;;;7.67;;
7683;SDS011;3884;48.616;12.872;2023-07-24T10:18:07;8.60;;;7.00;;
7683;SDS011;3884;48.616;12.872;2023-07-24T10:20:35;10.23;;;7.97;;
7683;SDS011;3884;48.616;12.872;2023-07-24T10:23:04;9.00;;;7.77;;
7683;SDS011;3884;48.616;12.872;2023-07-24T10:25:31;9.47;;;7.00;;
7683;SDS011;3884;48.616;12.872;2023-07-24T10:28:02;8.93;;;7.00;;
7683;SDS011;3884;48.616;12.872;2023-07-24T10:30:32;9.27;;;7.43;;
7683;SDS011;3884;48.616;12.872;2023-07-24T10:33:05;11.13;;;7.83;;
7683;SDS011;3884;48.616;12.872;2023-07-24T10:35:40;12.70;;;10.87;;
7683;SDS011;3884;48.616;12.872;2023-07-24T10:38:08;12.57;;;10.27;;
7683;SDS011;3884;48.616;12.872;2023-07-24T10:40:36;10.47;;;9.03;;
7683;SDS011;3884;48.616;12.872;2023-07-24T10:43:06;12.67;;;8.20;;
7683;SDS011;3884;48.616;12.872;2023-07-24T10:45:38;10.27;;;8.00;;
7683;SDS011;3884;48.616;12.872;2023-07-24T10:48:07;8.43;;;7.03;;
7683;SDS011;3884;48.616;12.872;2023-07-24T10:50:37;11.37;;;8.07;;
7683;SDS011;3884;48.616;12.872;2023-07-24T10:53:05;10.00;;;8.43;;
7683;SDS011;3884;48.616;12.872;2023-07-24T10:55:32;12.13;;;8.33;;
7683;SDS011;3884;48.616;12.872;2023-07-24T10:57:59;10.50;;;8.20;;
7683;SDS011;3884;48.616;12.872;2023-07-24T11:00:26;8.53;;;7.40;;
7683;SDS011;3884;48.616;12.872;2023-07-24T11:02:53;9.47;;;8.00;;
7683;SDS011;3884;48.616;12.872;2023-07-24T11:05:22;10.97;;;8.70;;
7683;SDS011;3884;48.616;12.872;2023-07-24T11:07:49;11.37;;;8.67;;
7683;SDS011;3884;48.616;12.872;2023-07-24T11:10:16;13.83;;;8.40;;
7683;SDS011;3884;48.616;12.872;2023-07-24T11:12:44;9.53;;;8.03;;
7683;SDS011;3884;48.616;12.872;2023-07-24T11:15:11;10.33;;;8.53;;
7683;SDS011;3884;48.616;12.872;2023-07-24T11:17:39;13.67;;;7.67;;
7683;SDS011;3884;48.616;12.872;2023-07-24T11:20:08;9.87;;;7.93;;
7683;SDS011;3884;48.616;12.872;2023-07-24T11:22:40;10.07;;;7.97;;
7683;SDS011;3884;48.616;12.872;2023-07-24T11:25:08;9.73;;;8.57;;
7683;SDS011;3884;48.616;12.872;2023-07-24T11:27:39;9.80;;;7.60;;
7683;SDS011;3884;48.616;12.872;2023-07-24T11:30:09;8.83;;;7.90;;
7683;SDS011;3884;48.616;12.872;2023-07-24T11:32:37;10.50;;;7.33;;
7683;SDS011;3884;48.616;12.872;2023-07-24T11:35:05;10.70;;;7.93;;
7683;SDS011;3884;48.616;12.872;2023-07-24T11:37:33;9.17;;;8.03;;
7683;SDS011;3884;48.616;12.872;2023-07-24T11:40:04;11.57;;;7.90;;
7683;SDS011;3884;48.616;12.872;2023-07-24T11:42:38;9.47;;;7.13;;
7683;SDS011;3884;48.616;12.872;2023-07-24T11:45:06;9.53;;;8.10;;
7683;SDS011;3884;48.616;12.872;2023-07-24T11:50:21;8.63;;;7.20;;
7683;SDS011;3884;48.616;12.872;2023-07-24T11:52:49;10.07;;;7.60;;
7683;SDS011;3884;48.616;12.872;2023-07-24T11:55:19;9.37;;;7.30;;
7683;SDS011;3884;48.616;12.872;2023-07-24T11:57:56;10.53;;;8.07;;
7683;SDS011;3884;48.616;12.872;2023-07-24T12:00:23;9.13;;;7.83;;
7683;SDS011;3884;48.616;12.872;2023-07-24T12:02:50;10.37;;;7.50;;
7683;SDS011;3884;48.616;12.872;2023-07-24T12:05:17;9.33;;;7.87;;
7683;SDS011;3884;48.616;12.872;2023-07-24T12:07:44;9.03;;;7.77;;
7683;SDS011;3884;48.616;12.872;2023-07-24T12:10:11;11.17;;;8.03;;
7683;SDS011;3884;48.616;12.872;2023-07-24T12:12:42;10.03;;;8.07;;
7683;SDS011;3884;48.616;12.872;2023-07-24T12:15:11;9.33;;;7.80;;
7683;SDS011;3884;48.616;12.872;2023-07-24T12:17:38;8.93;;;7.63;;
7683;SDS011;3884;48.616;12.872;2023-07-24T12:20:06;12.90;;;7.80;;
7683;SDS011;3884;48.616;12.872;2023-07-24T12:22:34;11.30;;;7.57;;
7683;SDS011;3884;48.616;12.872;2023-07-24T12:25:01;9.47;;;7.27;;
7683;SDS011;3884;48.616;12.872;2023-07-24T12:27:29;9.73;;;7.67;;
7683;SDS011;3884;48.616;12.872;2023-07-24T12:29:57;8.23;;;7.23;;
7683;SDS011;3884;48.616;12.872;2023-07-24T12:32:25;9.87;;;7.87;;
7683;SDS011;3884;48.616;12.872;2023-07-24T12:34:52;9.53;;;7.33;;
7683;SDS011;3884;48.616;12.872;2023-07-24T12:37:20;10.00;;;7.60;;
7683;SDS011;3884;48.616;12.872;2023-07-24T12:39:47;8.80;;;6.80;;
7683;SDS011;3884;48.616;12.872;2023-07-24T12:42:14;6.40;;;5.27;;
7683;SDS011;3884;48.616;12.872;2023-07-24T12:44:42;8.50;;;5.77;;
7683;SDS011;3884;48.616;12.872;2023-07-24T12:47:11;6.10;;;5.50;;
7683;SDS011;3884;48.616;12.872;2023-07-24T12:49:38;7.17;;;6.07;;
7683;SDS011;3884;48.616;12.872;2023-07-24T12:52:07;6.83;;;6.13;;
7683;SDS011;3884;48.616;12.872;2023-07-24T12:54:34;7.03;;;5.57;;
7683;SDS011;3884;48.616;12.872;2023-07-24T12:57:01;7.47;;;5.50;;
7683;SDS011;3884;48.616;12.872;2023-07-24T12:59:29;6.87;;;5.90;;
7683;SDS011;3884;48.616;12.872;2023-07-24T13:01:55;6.23;;;5.10;;
7683;SDS011;3884;48.616;12.872;2023-07-24T13:04:24;6.77;;;5.53;;
7683;SDS011;3884;48.616;12.872;2023-07-24T13:06:52;5.53;;;4.67;;
7683;SDS011;3884;48.616;12.872;2023-07-24T13:09:19;6.33;;;4.80;;
7683;SDS011;3884;48.616;12.872;2023-07-24T13:11:46;6.73;;;4.80;;
7683;SDS011;3884;48.616;12.872;2023-07-24T13:14:16;8.00;;;4.90;;
7683;SDS011;3884;48.616;12.872;2023-07-24T13:16:43;6.67;;;4.90;;
7683;SDS011;3884;48.616;12.872;2023-07-24T13:19:10;4.87;;;4.37;;
7683;SDS011;3884;48.616;12.872;2023-07-24T13:21:38;8.83;;;4.47;;
7683;SDS011;3884;48.616;12.872;2023-07-24T13:24:05;5.27;;;4.23;;
7683;SDS011;3884;48.616;12.872;2023-07-24T13:26:32;5.07;;;3.93;;
7683;SDS011;3884;48.616;12.872;2023-07-24T13:28:59;5.40;;;4.33;;
7683;SDS011;3884;48.616;12.872;2023-07-24T13:31:26;9.03;;;4.30;;
7683;SDS011;3884;48.616;12.872;2023-07-24T13:33:54;6.43;;;4.50;;
7683;SDS011;3884;48.616;12.872;2023-07-24T13:36:21;6.37;;;4.40;;
7683;SDS011;3884;48.616;12.872;2023-07-24T13:38:49;10.13;;;5.63;;
7683;SDS011;3884;48.616;12.872;2023-07-24T13:41:17;8.43;;;5.50;;
7683;SDS011;3884;48.616;12.872;2023-07-24T13:43:44;6.93;;;5.93;;
7683;SDS011;3884;48.616;12.872;2023-07-24T13:46:10;8.43;;;6.00;;
7683;SDS011;3884;48.616;12.872;2023-07-24T13:48:37;7.03;;;6.07;;
7683;SDS011;3884;48.616;12.872;2023-07-24T13:51:04;8.03;;;6.20;;
7683;SDS011;3884;48.616;12.872;2023-07-24T13:53:31;9.17;;;6.43;;
7683;SDS011;3884;48.616;12.872;2023-07-24T13:55:59;8.70;;;6.67;;
7683;SDS011;3884;48.616;12.872;2023-07-24T13:58:27;9.37;;;6.97;;
7683;SDS011;3884;48.616;12.872;2023-07-24T14:00:55;9.30;;;7.23;;
7683;SDS011;3884;48.616;12.872;2023-07-24T14:03:22;7.73;;;6.70;;
7683;SDS011;3884;48.616;12.872;2023-07-24T14:05:54;8.30;;;6.70;;
7683;SDS011;3884;48.616;12.872;2023-07-24T14:08:21;8.93;;;7.47;;
7683;SDS011;3884;48.616;12.872;2023-07-24T14:10:48;8.40;;;6.47;;
7683;SDS011;3884;48.616;12.872;2023-07-24T14:13:16;8.20;;;6.90;;
7683;SDS011;3884;48.616;12.872;2023-07-24T14:15:43;7.90;;;7.10;;
7683;SDS011;3884;48.616;12.872;2023-07-24T14:18:10;8.10;;;7.03;;
7683;SDS011;3884;48.616;12.872;2023-07-24T14:20:37;9.87;;;7.27;;
7683;SDS011;3884;48.616;12.872;2023-07-24T14:23:05;8.60;;;7.30;;
7683;SDS011;3884;48.616;12.872;2023-07-24T14:25:32;8.60;;;6.60;;
7683;SDS011;3884;48.616;12.872;2023-07-24T14:27:59;8.17;;;6.40;;
7683;SDS011;3884;48.616;12.872;2023-07-24T14:30:28;9.43;;;6.50;;
7683;SDS011;3884;48.616;12.872;2023-07-24T14:32:55;8.37;;;6.97;;
7683;SDS011;3884;48.616;12.872;2023-07-24T14:35:22;11.27;;;6.77;;
7683;SDS011;3884;48.616;12.872;2023-07-24T14:37:49;7.90;;;6.83;;
7683;SDS011;3884;48.616;12.872;2023-07-24T14:40:16;9.27;;;6.90;;
7683;SDS011;3884;48.616;12.872;2023-07-24T14:42:43;7.13;;;6.40;;
7683;SDS011;3884;48.616;12.872;2023-07-24T14:45:10;8.13;;;6.70;;
7683;SDS011;3884;48.616;12.872;2023-07-24T14:47:38;8.27;;;6.63;;
7683;SDS011;3884;48.616;12.872;2023-07-24T14:50:05;8.40;;;7.00;;
7683;SDS011;3884;48.616;12.872;2023-07-24T14:52:32;8.57;;;6.93;;
7683;SDS011;3884;48.616;12.872;2023-07-24T14:55:03;7.80;;;6.60;;
7683;SDS011;3884;48.616;12.872;2023-07-24T14:57:35;8.20;;;6.70;;